Time;durP1;ratioP1;P1;durP2;ratioP2;P2;SDS_P1;SDS_P2;PMS_P1;PMS_P2;Temp;Humidity;BMP_temperature;BMP_pressure;BME280_temperature;BME280_humidity;BME280_pressure;Samples;Min_cycle;Max_cycle;Signal;HPM_P1;HPM_P2
2023/05/22 00:00:12;;;;;;;8.50;5.22;;;21.70;63.30;;;;;;5073176;28;20050;-74
2023/05/22 00:02:41;;;;;;;9.05;5.57;;;21.70;63.30;;;;;;5074332;28;20125;-75
2023/05/22 00:05:08;;;;;;;7.60;5.43;;;21.70;63.30;;;;;;5071781;28;20044;-74
2023/05/22 00:07:34;;;;;;;8.30;5.70;;;21.70;63.30;;;;;;5072175;28;20090;-74
2023/05/22 00:10:00;;;;;;;9.23;5.50;;;21.80;63.30;;;;;;5074242;28;20033;-74
2023/05/22 00:12:25;;;;;;;8.45;5.57;;;21.80;63.40;;;;;;5073610;28;20045;-75
2023/05/22 00:14:51;;;;;;;10.25;6.15;;;21.80;63.30;;;;;;5072204;28;20044;-75
2023/05/22 00:17:17;;;;;;;7.47;5.38;;;21.80;63.40;;;;;;5073561;28;20399;-75
2023/05/22 00:19:43;;;;;;;7.63;5.40;;;21.70;63.30;;;;;;5073746;28;20040;-74
2023/05/22 00:22:08;;;;;;;6.55;5.40;;;21.80;63.30;;;;;;5072797;28;20087;-74
2023/05/22 00:24:34;;;;;;;7.25;5.78;;;21.70;63.30;;;;;;5073893;28;20052;-74
2023/05/22 00:26:59;;;;;;;8.27;5.80;;;21.70;63.30;;;;;;5072744;28;20051;-75
2023/05/22 00:29:25;;;;;;;8.60;6.25;;;21.70;63.30;;;;;;5073458;28;20201;-75
2023/05/22 00:31:50;;;;;;;7.28;5.40;;;21.70;63.30;;;;;;5073624;28;20044;-74
2023/05/22 00:34:16;;;;;;;9.85;5.88;;;21.70;63.30;;;;;;5071324;28;20045;-74
2023/05/22 00:36:41;;;;;;;9.48;5.47;;;21.70;63.30;;;;;;5073738;28;20043;-74
2023/05/22 00:39:08;;;;;;;10.00;5.97;;;21.70;63.30;;;;;;5073042;28;20048;-74
2023/05/22 00:41:34;;;;;;;9.80;5.70;;;21.70;63.20;;;;;;5072558;28;20053;-75
2023/05/22 00:44:00;;;;;;;9.15;5.45;;;21.70;63.30;;;;;;5073229;28;20515;-75
2023/05/22 00:46:25;;;;;;;8.35;5.72;;;21.70;63.30;;;;;;5073146;28;20488;-75
2023/05/22 00:48:51;;;;;;;6.72;5.43;;;21.70;63.20;;;;;;5072453;28;20922;-75
2023/05/22 00:51:18;;;;;;;8.48;5.53;;;21.70;63.20;;;;;;5072957;28;20086;-75
2023/05/22 00:53:45;;;;;;;7.60;5.27;;;21.60;63.10;;;;;;5055694;28;20098;-74
2023/05/22 00:56:11;;;;;;;7.40;5.13;;;21.70;63.20;;;;;;5054576;28;20048;-75
2023/05/22 00:58:36;;;;;;;8.32;5.78;;;21.60;63.10;;;;;;5071944;28;20094;-76
2023/05/22 01:01:02;;;;;;;8.32;5.57;;;21.60;63.10;;;;;;5071841;28;20049;-76
2023/05/22 01:03:28;;;;;;;8.32;6.07;;;21.70;63.20;;;;;;5070802;28;20040;-75
2023/05/22 01:05:54;;;;;;;7.07;5.38;;;21.60;63.10;;;;;;5051631;28;20044;-75
2023/05/22 01:08:20;;;;;;;7.90;5.45;;;21.60;63.10;;;;;;5052604;28;20051;-75
2023/05/22 01:10:46;;;;;;;8.00;5.35;;;21.60;63.00;;;;;;5084895;28;20040;-75
2023/05/22 01:13:11;;;;;;;8.30;5.55;;;21.60;63.00;;;;;;5054793;28;20090;-75
2023/05/22 01:15:54;;;;;;;7.40;5.75;;;21.60;63.10;;;;;;5072511;28;20045;-75
2023/05/22 01:18:51;;;;;;;6.95;5.05;;;21.70;63.10;;;;;;5070678;28;20052;-75
2023/05/22 01:21:38;;;;;;;8.02;5.38;;;21.60;63.10;;;;;;5041725;28;20527;-75
2023/05/22 01:24:25;;;;;;;8.50;5.25;;;21.60;63.00;;;;;;5052848;28;20051;-75
2023/05/22 01:27:06;;;;;;;6.18;4.95;;;21.60;63.00;;;;;;5072648;28;20194;-75
2023/05/22 01:29:46;;;;;;;6.95;5.30;;;21.60;63.00;;;;;;5071401;28;20048;-75
2023/05/22 01:32:13;;;;;;;6.97;5.15;;;21.60;63.00;;;;;;5071502;28;20487;-75
2023/05/22 01:34:40;;;;;;;9.03;5.63;;;21.60;63.00;;;;;;5034935;28;20048;-75
2023/05/22 01:37:05;;;;;;;7.57;5.05;;;21.60;63.00;;;;;;5050889;28;20045;-75
2023/05/22 01:39:31;;;;;;;7.10;5.38;;;21.60;63.10;;;;;;5050188;28;20045;-75
2023/05/22 01:41:56;;;;;;;6.40;5.00;;;21.60;63.10;;;;;;5067442;28;20041;-75
2023/05/22 01:44:22;;;;;;;8.20;5.25;;;21.60;63.00;;;;;;5066655;28;20029;-75
2023/05/22 01:46:48;;;;;;;7.80;5.10;;;21.60;63.00;;;;;;5052710;28;20489;-75
2023/05/22 01:49:14;;;;;;;8.35;5.45;;;21.60;63.00;;;;;;5086456;28;20047;-75
2023/05/22 01:51:55;;;;;;;8.35;5.40;;;21.60;63.00;;;;;;5054539;28;20051;-75
2023/05/22 01:54:36;;;;;;;6.90;5.22;;;21.60;62.90;;;;;;5089050;28;20468;-75
2023/05/22 01:57:20;;;;;;;6.55;4.82;;;21.60;63.00;;;;;;5056395;28;20036;-75
2023/05/22 01:59:51;;;;;;;7.30;5.30;;;21.60;63.00;;;;;;5071354;28;20044;-75
2023/05/22 02:02:17;;;;;;;6.38;5.18;;;21.60;63.00;;;;;;5054571;28;20497;-75
2023/05/22 02:04:50;;;;;;;7.00;4.93;;;21.60;63.00;;;;;;5039230;28;20093;-75
2023/05/22 02:07:16;;;;;;;7.53;5.63;;;21.60;63.00;;;;;;5053199;28;20468;-75
2023/05/22 02:09:42;;;;;;;7.88;5.30;;;21.60;63.00;;;;;;5050494;28;20041;-75
2023/05/22 02:12:08;;;;;;;6.60;5.18;;;21.60;63.00;;;;;;5050383;28;20072;-75
2023/05/22 02:14:33;;;;;;;6.82;5.03;;;21.60;63.00;;;;;;5049784;28;20448;-75
2023/05/22 02:17:00;;;;;;;7.70;5.18;;;21.60;63.00;;;;;;5052270;28;20037;-75
2023/05/22 02:19:26;;;;;;;7.82;5.40;;;21.60;63.00;;;;;;5068496;28;20043;-75
2023/05/22 02:21:52;;;;;;;7.32;5.60;;;21.60;63.00;;;;;;5071121;28;20048;-74
2023/05/22 02:24:18;;;;;;;6.70;5.15;;;21.60;63.10;;;;;;5071389;28;20045;-74
2023/05/22 02:26:44;;;;;;;6.32;4.82;;;21.60;63.10;;;;;;5070391;28;20060;-75
2023/05/22 02:29:11;;;;;;;7.40;5.22;;;21.60;63.00;;;;;;5077414;28;20111;-75
2023/05/22 02:31:37;;;;;;;7.13;5.10;;;21.50;63.00;;;;;;5076071;28;20044;-74
2023/05/22 02:34:04;;;;;;;6.72;5.35;;;21.50;62.90;;;;;;5075019;28;20353;-74
2023/05/22 02:36:30;;;;;;;7.90;5.65;;;21.50;63.00;;;;;;5090950;28;20093;-75
2023/05/22 02:38:57;;;;;;;6.55;5.13;;;21.50;63.00;;;;;;5095953;28;20047;-75
2023/05/22 02:41:22;;;;;;;7.20;4.97;;;21.50;63.00;;;;;;5076727;28;20408;-75
2023/05/22 02:43:48;;;;;;;7.13;4.97;;;21.50;63.00;;;;;;5075684;28;20041;-75
2023/05/22 02:46:13;;;;;;;6.97;5.38;;;21.50;63.00;;;;;;5073979;28;20040;-75
2023/05/22 02:48:39;;;;;;;6.82;5.40;;;21.50;63.00;;;;;;5074615;28;20068;-74
2023/05/22 02:51:05;;;;;;;6.50;5.38;;;21.50;63.00;;;;;;5087326;28;20205;-75
2023/05/22 02:53:34;;;;;;;7.47;5.45;;;21.50;63.00;;;;;;5094254;28;20501;-75
2023/05/22 02:55:59;;;;;;;7.30;5.30;;;21.50;62.90;;;;;;5080818;28;20048;-75
2023/05/22 02:58:25;;;;;;;6.25;5.30;;;21.50;62.90;;;;;;5074699;28;20476;-74
2023/05/22 03:00:54;;;;;;;7.50;5.22;;;21.50;63.00;;;;;;5073943;28;20492;-74
2023/05/22 03:03:20;;;;;;;7.30;5.45;;;21.50;63.00;;;;;;5072888;28;20068;-75
2023/05/22 03:05:45;;;;;;;7.45;5.72;;;21.50;62.90;;;;;;5075491;28;20077;-74
2023/05/22 03:08:11;;;;;;;6.95;5.65;;;21.50;63.00;;;;;;5075118;28;20543;-74
2023/05/22 03:10:37;;;;;;;7.13;5.35;;;21.50;62.90;;;;;;5074583;28;20361;-74
2023/05/22 03:13:03;;;;;;;7.72;5.30;;;21.50;62.90;;;;;;5075034;28;20504;-74
2023/05/22 03:15:28;;;;;;;6.95;5.35;;;21.50;63.00;;;;;;5073636;28;20036;-74
2023/05/22 03:17:54;;;;;;;6.78;5.30;;;21.50;62.90;;;;;;5074600;28;20049;-75
2023/05/22 03:20:19;;;;;;;6.03;4.90;;;21.50;62.90;;;;;;5074543;28;20492;-75
2023/05/22 03:22:45;;;;;;;6.90;5.47;;;21.50;62.90;;;;;;5072854;28;20045;-75
2023/05/22 03:25:10;;;;;;;7.32;5.38;;;21.50;62.90;;;;;;5074579;28;20064;-75
2023/05/22 03:27:38;;;;;;;7.53;5.47;;;21.50;62.90;;;;;;5074428;28;20511;-75
2023/05/22 03:30:04;;;;;;;7.07;5.20;;;21.50;62.90;;;;;;5072770;28;20045;-74
2023/05/22 03:32:30;;;;;;;7.30;5.47;;;21.50;62.90;;;;;;5074455;28;20055;-74
2023/05/22 03:34:55;;;;;;;6.70;5.50;;;21.50;63.00;;;;;;5074850;28;20036;-74
2023/05/22 03:37:21;;;;;;;6.70;5.45;;;21.50;62.90;;;;;;5073478;28;20129;-75
2023/05/22 03:39:47;;;;;;;7.00;5.50;;;21.50;62.90;;;;;;5074179;28;20051;-75
2023/05/22 03:42:12;;;;;;;6.72;5.40;;;21.50;62.90;;;;;;5074542;28;20067;-75
2023/05/22 03:44:38;;;;;;;7.20;5.53;;;21.40;62.90;;;;;;5073446;28;20044;-74
2023/05/22 03:47:04;;;;;;;7.03;5.07;;;21.50;62.90;;;;;;5073201;28;20055;-74
2023/05/22 03:49:30;;;;;;;7.50;5.30;;;21.50;62.90;;;;;;5072740;28;20129;-75
2023/05/22 03:51:55;;;;;;;7.18;5.30;;;21.50;62.90;;;;;;5073800;28;20146;-75
2023/05/22 03:54:21;;;;;;;7.45;5.53;;;21.40;62.90;;;;;;5072650;28;20048;-75
2023/05/22 03:56:46;;;;;;;8.05;5.55;;;21.50;62.90;;;;;;5073849;28;20036;-75
2023/05/22 03:59:12;;;;;;;9.20;5.63;;;21.40;62.80;;;;;;5089115;28;20075;-75
2023/05/22 04:01:37;;;;;;;6.45;5.18;;;21.40;62.90;;;;;;5069111;28;20404;-75
2023/05/22 04:04:04;;;;;;;7.15;5.40;;;21.40;62.90;;;;;;5068718;28;20048;-75
2023/05/22 04:06:31;;;;;;;6.57;5.53;;;21.40;62.90;;;;;;5072190;28;20051;-74
2023/05/22 04:08:57;;;;;;;7.50;5.50;;;21.40;62.90;;;;;;5073981;28;20084;-75
2023/05/22 04:11:23;;;;;;;7.13;5.18;;;21.40;62.90;;;;;;5073330;28;20409;-75
2023/05/22 04:13:49;;;;;;;7.05;5.32;;;21.40;62.90;;;;;;5073368;28;20037;-75
2023/05/22 04:16:16;;;;;;;7.85;5.85;;;21.40;62.90;;;;;;5073673;28;20047;-75
2023/05/22 04:18:41;;;;;;;7.68;6.00;;;21.40;62.90;;;;;;5084883;28;20522;-75
2023/05/22 04:21:08;;;;;;;6.53;5.60;;;21.40;62.90;;;;;;5083055;28;20127;-75
2023/05/22 04:23:34;;;;;;;7.32;5.53;;;21.40;62.90;;;;;;5072763;28;20048;-75
2023/05/22 04:26:01;;;;;;;7.30;5.70;;;21.40;62.90;;;;;;5074903;28;20058;-75
2023/05/22 04:28:29;;;;;;;7.07;5.68;;;21.40;62.90;;;;;;5073267;28;20063;-75
2023/05/22 04:30:56;;;;;;;7.50;5.32;;;21.40;62.90;;;;;;5073747;28;20048;-74
2023/05/22 04:33:23;;;;;;;7.13;5.30;;;21.40;62.90;;;;;;5071062;28;20036;-75
2023/05/22 04:35:49;;;;;;;6.85;5.40;;;21.40;62.90;;;;;;5073562;28;20085;-74
2023/05/22 04:38:17;;;;;;;6.72;5.30;;;21.40;62.90;;;;;;5072243;28;20123;-74
2023/05/22 04:40:43;;;;;;;7.37;5.70;;;21.40;62.90;;;;;;5072590;28;20036;-74
2023/05/22 04:43:10;;;;;;;6.57;5.40;;;21.40;62.90;;;;;;5073099;28;20047;-74
2023/05/22 04:45:36;;;;;;;7.15;5.35;;;21.40;62.90;;;;;;5073397;28;20036;-74
2023/05/22 04:48:01;;;;;;;7.28;5.65;;;21.40;63.20;;;;;;5072336;28;20055;-74
2023/05/22 04:50:31;;;;;;;7.15;5.40;;;21.40;62.90;;;;;;5072413;28;20048;-75
2023/05/22 04:52:58;;;;;;;6.70;5.75;;;21.40;62.90;;;;;;5073364;28;20048;-75
2023/05/22 04:55:23;;;;;;;6.97;5.53;;;21.40;62.90;;;;;;5072143;28;20036;-75
2023/05/22 04:57:51;;;;;;;7.50;5.68;;;21.40;62.90;;;;;;5073340;28;20040;-74
2023/05/22 05:00:17;;;;;;;7.07;5.47;;;21.40;62.90;;;;;;5072689;28;20048;-74
2023/05/22 05:02:43;;;;;;;7.90;5.30;;;21.40;63.00;;;;;;5072411;28;20040;-75
2023/05/22 05:05:08;;;;;;;6.68;5.50;;;21.40;63.60;;;;;;5072761;28;20036;-74
2023/05/22 05:07:42;;;;;;;6.72;5.28;;;21.40;63.00;;;;;;5072872;28;20094;-74
2023/05/22 05:10:08;;;;;;;7.07;5.32;;;21.40;63.00;;;;;;5070581;28;20055;-74
2023/05/22 05:12:33;;;;;;;6.65;5.72;;;21.40;62.90;;;;;;5071458;28;20040;-75
2023/05/22 05:14:59;;;;;;;6.50;5.15;;;21.40;63.00;;;;;;5072544;28;20055;-75
2023/05/22 05:17:25;;;;;;;6.47;5.20;;;21.40;63.00;;;;;;5070550;28;20041;-75
2023/05/22 05:19:50;;;;;;;7.38;5.70;;;21.40;63.00;;;;;;5072793;28;20041;-75
2023/05/22 05:22:16;;;;;;;6.65;5.38;;;21.40;63.00;;;;;;5071680;28;20112;-74
2023/05/22 05:24:41;;;;;;;7.40;5.50;;;21.40;63.00;;;;;;5070519;28;20043;-74
2023/05/22 05:27:07;;;;;;;8.23;5.60;;;21.40;63.00;;;;;;5071665;28;20209;-75
2023/05/22 05:29:32;;;;;;;6.82;5.43;;;21.40;63.00;;;;;;5071299;28;20043;-75
2023/05/22 05:31:58;;;;;;;7.07;5.65;;;21.40;63.00;;;;;;5072617;28;20040;-75
2023/05/22 05:34:23;;;;;;;6.80;5.47;;;21.40;63.00;;;;;;5070742;28;20048;-75
2023/05/22 05:36:51;;;;;;;7.32;5.10;;;21.40;63.00;;;;;;5071562;28;20097;-75
2023/05/22 05:39:16;;;;;;;7.17;5.90;;;21.40;63.00;;;;;;5072034;28;20048;-74
2023/05/22 05:41:42;;;;;;;6.43;5.57;;;21.40;63.00;;;;;;5072389;28;20044;-74
2023/05/22 05:44:07;;;;;;;8.10;5.45;;;21.40;63.10;;;;;;5071660;28;20040;-73
2023/05/22 05:46:34;;;;;;;6.28;5.22;;;21.40;63.00;;;;;;5070986;28;20044;-80
2023/05/22 05:49:00;;;;;;;6.85;5.57;;;21.40;63.10;;;;;;5072372;28;20055;-85
2023/05/22 05:51:26;;;;;;;7.55;5.80;;;21.30;63.00;;;;;;5071169;28;20062;-75
2023/05/22 05:53:52;;;;;;;8.55;5.80;;;21.40;63.10;;;;;;5089136;28;20172;-74
2023/05/22 05:56:17;;;;;;;6.57;5.43;;;21.40;63.10;;;;;;5085948;28;20087;-74
2023/05/22 05:58:43;;;;;;;8.23;5.97;;;21.30;63.10;;;;;;5070586;28;20484;-73
2023/05/22 06:01:08;;;;;;;9.05;6.00;;;21.40;63.20;;;;;;5070634;28;20440;-76
2023/05/22 06:03:34;;;;;;;9.35;5.93;;;21.40;63.20;;;;;;5072320;28;20048;-75
2023/05/22 06:05:59;;;;;;;9.68;5.88;;;21.40;63.40;;;;;;5071441;28;20044;-73
2023/05/22 06:08:25;;;;;;;8.55;6.22;;;21.40;63.60;;;;;;5084672;28;20075;-73
2023/05/22 06:10:50;;;;;;;10.63;6.35;;;21.40;63.70;;;;;;5090090;28;20048;-73
2023/05/22 06:13:16;;;;;;;10.15;6.60;;;21.40;63.70;;;;;;5070948;28;20494;-74
2023/05/22 06:15:41;;;;;;;8.82;6.15;;;21.40;63.80;;;;;;5070701;28;20047;-73
2023/05/22 06:18:07;;;;;;;9.60;6.22;;;21.40;63.90;;;;;;5070316;28;20083;-74
2023/05/22 06:20:32;;;;;;;7.82;5.70;;;21.50;64.10;;;;;;5071366;28;20047;-73
2023/05/22 06:22:58;;;;;;;8.98;5.95;;;21.40;64.10;;;;;;5071528;28;20036;-70
2023/05/22 06:25:28;;;;;;;8.98;6.05;;;21.50;64.00;;;;;;5071330;28;20671;-72
2023/05/22 06:27:54;;;;;;;13.60;6.18;;;21.50;64.00;;;;;;5070792;28;20147;-70
2023/05/22 06:30:19;;;;;;;9.60;6.18;;;21.50;64.20;;;;;;5069844;28;20051;-67
2023/05/22 06:32:45;;;;;;;12.35;6.32;;;21.50;64.30;;;;;;5071093;28;20174;-69
2023/05/22 06:35:11;;;;;;;10.57;6.22;;;21.50;64.40;;;;;;5070366;28;20187;-71
2023/05/22 06:37:37;;;;;;;10.73;5.80;;;21.50;64.40;;;;;;5071379;28;20055;-69
2023/05/22 06:40:04;;;;;;;11.27;6.25;;;21.50;64.60;;;;;;5070893;28;20057;-69
2023/05/22 06:42:31;;;;;;;12.20;6.27;;;21.60;64.70;;;;;;5071481;28;20041;-72
2023/05/22 06:44:56;;;;;;;15.25;6.25;;;21.60;64.70;;;;;;5072581;28;20048;-69
2023/05/22 06:47:22;;;;;;;11.02;6.00;;;21.60;64.80;;;;;;5071197;28;20036;-68
2023/05/22 06:49:47;;;;;;;14.50;6.10;;;21.60;64.80;;;;;;5071381;28;20124;-68
2023/05/22 06:52:13;;;;;;;10.75;6.05;;;21.60;64.80;;;;;;5071349;28;20041;-70
2023/05/22 06:54:41;;;;;;;11.75;5.80;;;21.60;64.90;;;;;;5071554;28;20040;-70
2023/05/22 06:57:07;;;;;;;9.43;6.00;;;21.60;64.90;;;;;;5072189;28;20060;-71
2023/05/22 06:59:33;;;;;;;9.93;5.65;;;21.60;64.90;;;;;;5071961;28;20044;-70
2023/05/22 07:01:58;;;;;;;10.10;6.50;;;21.60;64.90;;;;;;5071765;28;20094;-71
2023/05/22 07:04:24;;;;;;;10.93;6.10;;;21.70;65.00;;;;;;5071591;28;20197;-69
2023/05/22 07:06:49;;;;;;;10.50;6.32;;;21.70;65.60;;;;;;5073637;28;20115;-70
2023/05/22 07:09:16;;;;;;;10.07;6.60;;;21.70;65.00;;;;;;5090974;28;20141;-73
2023/05/22 07:11:42;;;;;;;8.13;6.22;;;21.70;65.00;;;;;;5087228;28;20372;-68
2023/05/22 07:14:08;;;;;;;10.23;6.57;;;21.70;65.00;;;;;;5093735;28;20040;-69
2023/05/22 07:16:35;;;;;;;8.45;5.97;;;21.80;65.10;;;;;;5090786;28;20044;-69
2023/05/22 07:19:02;;;;;;;9.90;6.57;;;21.70;65.10;;;;;;5075355;28;20051;-69
2023/05/22 07:21:30;;;;;;;8.68;6.03;;;21.70;65.00;;;;;;5073597;28;20167;-68
2023/05/22 07:23:56;;;;;;;11.38;6.63;;;21.70;65.00;;;;;;5074226;28;20044;-70
2023/05/22 07:26:22;;;;;;;7.03;6.00;;;21.70;65.00;;;;;;5072912;28;20052;-68
2023/05/22 07:28:47;;;;;;;9.73;6.22;;;21.70;64.90;;;;;;5073588;28;20041;-69
2023/05/22 07:31:13;;;;;;;10.10;6.70;;;21.70;64.90;;;;;;5072781;28;20048;-71
2023/05/22 07:33:39;;;;;;;9.07;6.32;;;21.70;64.90;;;;;;5073977;28;20068;-72
2023/05/22 07:36:05;;;;;;;9.98;6.35;;;21.80;65.00;;;;;;5074041;28;20056;-70
2023/05/22 07:38:31;;;;;;;10.27;6.95;;;21.80;65.00;;;;;;5073289;28;20534;-71
2023/05/22 07:40:56;;;;;;;11.52;6.50;;;21.80;65.00;;;;;;5071074;28;20483;-72
2023/05/22 07:43:22;;;;;;;8.35;6.07;;;21.80;65.10;;;;;;5073823;28;20043;-69
2023/05/22 07:45:47;;;;;;;10.27;6.60;;;21.80;65.10;;;;;;5074525;28;20041;-69
2023/05/22 07:48:13;;;;;;;8.30;6.47;;;21.80;65.10;;;;;;5074237;28;20076;-69
2023/05/22 07:50:43;;;;;;;9.07;6.50;;;21.80;65.10;;;;;;5073323;28;20051;-72
2023/05/22 07:53:09;;;;;;;8.55;6.82;;;21.90;65.10;;;;;;5073823;28;20118;-71
2023/05/22 07:55:34;;;;;;;8.75;6.38;;;21.90;65.10;;;;;;5083329;28;20496;-70
2023/05/22 07:58:02;;;;;;;8.13;6.32;;;21.90;65.10;;;;;;5094139;28;20526;-70
2023/05/22 08:00:28;;;;;;;7.78;6.00;;;21.90;65.10;;;;;;5081333;28;20056;-71
2023/05/22 08:02:54;;;;;;;9.63;6.18;;;21.90;65.20;;;;;;5073125;28;20048;-72
2023/05/22 08:05:19;;;;;;;9.32;6.43;;;21.90;65.20;;;;;;5062327;28;20041;-74
2023/05/22 08:07:45;;;;;;;10.32;6.20;;;21.90;65.10;;;;;;5070808;28;20036;-73
2023/05/22 08:10:15;;;;;;;8.75;6.70;;;22.00;65.10;;;;;;5058496;28;20068;-73
2023/05/22 08:12:40;;;;;;;12.90;7.00;;;22.00;65.00;;;;;;5053860;28;20045;-73
2023/05/22 08:15:06;;;;;;;10.25;6.43;;;22.00;65.00;;;;;;5067650;28;20052;-77
2023/05/22 08:17:32;;;;;;;11.50;6.57;;;22.00;65.00;;;;;;5065261;28;20174;-73
2023/05/22 08:19:58;;;;;;;8.35;6.10;;;22.00;65.00;;;;;;5060523;28;20143;-73
2023/05/22 08:22:23;;;;;;;10.45;6.15;;;22.00;64.90;;;;;;5053387;28;20076;-72
2023/05/22 08:24:49;;;;;;;10.75;6.85;;;22.00;64.90;;;;;;5070266;28;20040;-74
2023/05/22 08:27:14;;;;;;;10.98;6.60;;;22.00;65.00;;;;;;5072222;28;20187;-76
2023/05/22 08:29:40;;;;;;;8.90;6.38;;;22.00;65.00;;;;;;5072015;28;20132;-72
2023/05/22 08:32:06;;;;;;;7.97;6.40;;;21.90;65.00;;;;;;5072827;28;20503;-73
2023/05/22 08:34:32;;;;;;;11.35;6.80;;;22.00;65.10;;;;;;5073393;28;20403;-72
2023/05/22 08:36:58;;;;;;;11.75;6.72;;;22.00;65.10;;;;;;5072830;28;20040;-72
2023/05/22 08:39:23;;;;;;;8.43;6.20;;;22.00;65.20;;;;;;5072286;28;20044;-71
2023/05/22 08:41:49;;;;;;;10.00;6.45;;;22.00;65.20;;;;;;5073055;28;20045;-72
2023/05/22 08:44:15;;;;;;;11.80;6.68;;;22.00;65.20;;;;;;5073135;28;20041;-72
2023/05/22 08:46:43;;;;;;;9.98;6.00;;;22.00;65.20;;;;;;5072768;28;20094;-72
2023/05/22 08:49:08;;;;;;;9.60;6.40;;;22.00;65.20;;;;;;5071692;28;20052;-75
2023/05/22 08:51:37;;;;;;;9.77;6.35;;;22.00;65.20;;;;;;5073296;28;20123;-74
2023/05/22 08:54:06;;;;;;;9.85;6.47;;;22.10;65.30;;;;;;5072027;28;20051;-74
2023/05/22 08:56:32;;;;;;;9.60;6.68;;;22.10;65.30;;;;;;5055364;28;20044;-69
2023/05/22 08:58:58;;;;;;;12.55;6.88;;;22.10;65.40;;;;;;5073156;28;20055;-71
2023/05/22 09:01:23;;;;;;;9.60;6.88;;;22.10;65.40;;;;;;5071079;28;20044;-73
2023/05/22 09:03:50;;;;;;;8.15;6.10;;;22.20;65.50;;;;;;5055094;28;20036;-73
2023/05/22 09:06:16;;;;;;;12.65;7.38;;;22.20;65.50;;;;;;5071091;28;20487;-73
2023/05/22 09:08:42;;;;;;;11.05;6.82;;;22.20;65.50;;;;;;5067808;28;20072;-74
2023/05/22 09:11:09;;;;;;;9.18;6.60;;;22.30;65.60;;;;;;5072316;28;20510;-72
2023/05/22 09:13:37;;;;;;;11.32;6.57;;;22.30;65.50;;;;;;5072675;28;20076;-73
2023/05/22 09:16:11;;;;;;;10.32;6.72;;;22.30;65.50;;;;;;5070860;28;20123;-73
2023/05/22 09:18:37;;;;;;;9.90;6.40;;;22.30;65.50;;;;;;5072864;28;20079;-72
2023/05/22 09:21:04;;;;;;;10.02;6.68;;;22.30;65.50;;;;;;5072755;28;20080;-77
2023/05/22 09:23:29;;;;;;;9.38;6.68;;;22.30;65.60;;;;;;5070140;28;20044;-73
2023/05/22 09:25:55;;;;;;;9.48;6.50;;;22.30;65.50;;;;;;5071063;28;20170;-71
2023/05/22 09:28:21;;;;;;;8.48;6.50;;;22.30;65.50;;;;;;5072074;28;20067;-76
2023/05/22 09:30:49;;;;;;;10.52;6.13;;;22.40;65.50;;;;;;5070796;28;20380;-74
2023/05/22 09:33:15;;;;;;;9.88;6.32;;;22.40;65.50;;;;;;5074150;28;20472;-75
2023/05/22 09:35:42;;;;;;;10.45;6.55;;;22.40;65.40;;;;;;5071860;28;20045;-75
2023/05/22 09:38:09;;;;;;;8.18;6.30;;;22.40;65.30;;;;;;5072781;28;20049;-75
2023/05/22 09:40:36;;;;;;;9.50;6.18;;;22.40;65.30;;;;;;5072877;28;20044;-75
2023/05/22 09:43:06;;;;;;;10.18;6.80;;;22.40;65.20;;;;;;5054290;28;20054;-74
2023/05/22 09:45:33;;;;;;;10.48;5.75;;;22.40;65.20;;;;;;5071355;28;20131;-74
2023/05/22 09:47:58;;;;;;;7.78;6.25;;;22.40;65.20;;;;;;5071876;28;20037;-74
2023/05/22 09:50:24;;;;;;;9.48;6.20;;;22.40;65.80;;;;;;5071919;28;20037;-74
2023/05/22 09:52:49;;;;;;;10.70;6.57;;;22.40;65.20;;;;;;5071690;28;20429;-78
2023/05/22 09:55:15;;;;;;;8.52;6.10;;;22.40;65.20;;;;;;5054686;28;20044;-76
2023/05/22 09:57:45;;;;;;;7.82;5.90;;;22.40;65.20;;;;;;5070518;28;20083;-76
2023/05/22 10:00:12;;;;;;;7.72;6.03;;;22.40;65.20;;;;;;5072330;28;20049;-76
2023/05/22 10:02:37;;;;;;;10.75;6.60;;;22.40;65.30;;;;;;5071223;28;20080;-76
2023/05/22 10:05:09;;;;;;;8.95;6.18;;;22.40;65.20;;;;;;5054249;28;20455;-77
2023/05/22 10:07:38;;;;;;;9.95;7.07;;;22.40;65.30;;;;;;5071561;28;20048;-76
2023/05/22 10:10:07;;;;;;;11.90;6.95;;;22.40;65.30;;;;;;5072064;28;20044;-75
2023/05/22 10:12:35;;;;;;;11.15;6.72;;;22.40;65.30;;;;;;5070382;28;20040;-75
2023/05/22 10:15:01;;;;;;;11.98;6.97;;;22.40;65.40;;;;;;5071892;28;20044;-75
2023/05/22 10:17:27;;;;;;;11.32;7.13;;;22.40;65.50;;;;;;5071141;28;20044;-74
2023/05/22 10:19:53;;;;;;;11.93;7.18;;;22.30;65.40;;;;;;5054000;28;20127;-72
2023/05/22 10:22:20;;;;;;;13.18;7.25;;;22.40;65.50;;;;;;5071244;28;20079;-74
2023/05/22 10:24:49;;;;;;;15.95;8.43;;;22.30;65.50;;;;;;5053781;28;20529;-74
2023/05/22 10:27:14;;;;;;;13.63;8.35;;;22.30;65.60;;;;;;5072021;28;20052;-75
2023/05/22 10:30:20;;;;;;;12.73;7.57;;;22.30;65.60;;;;;;5072658;28;20048;-75
2023/05/22 10:32:50;;;;;;;12.20;7.95;;;22.40;65.60;;;;;;5037972;28;20041;-74
2023/05/22 10:35:19;;;;;;;14.40;7.55;;;22.30;65.70;;;;;;5017093;28;20110;-77
2023/05/22 10:37:50;;;;;;;11.93;8.00;;;22.30;65.60;;;;;;5061486;28;20098;-76
2023/05/22 10:40:27;;;;;;;12.63;7.53;;;22.30;65.60;;;;;;5053184;28;20510;-80
2023/05/22 10:43:00;;;;;;;11.95;7.75;;;22.40;65.60;;;;;;5071317;28;20123;-80
2023/05/22 10:45:27;;;;;;;13.05;7.43;;;22.30;65.60;;;;;;5070903;28;20059;-81
2023/05/22 10:48:08;;;;;;;12.55;8.50;;;22.30;65.50;;;;;;5072133;28;20072;-80
2023/05/22 10:50:34;;;;;;;14.43;7.72;;;22.30;65.40;;;;;;5074973;28;20083;-75
2023/05/22 10:53:19;;;;;;;11.55;7.95;;;22.30;65.40;;;;;;5075452;28;20084;-75
2023/05/22 10:55:49;;;;;;;13.65;8.98;;;22.30;65.50;;;;;;5075996;28;20127;-74
2023/05/22 10:58:23;;;;;;;13.85;8.50;;;22.30;65.50;;;;;;5074408;28;20040;-74
2023/05/22 11:01:06;;;;;;;16.17;8.65;;;22.30;65.50;;;;;;5075272;28;20051;-76
2023/05/22 11:03:56;;;;;;;13.00;8.30;;;22.40;65.40;;;;;;5043781;28;20041;-76
2023/05/22 11:06:45;;;;;;;14.55;8.85;;;22.40;65.40;;;;;;5074714;28;20040;-75
2023/05/22 11:09:22;;;;;;;13.05;8.00;;;22.40;65.50;;;;;;5071843;28;20082;-75
2023/05/22 11:12:23;;;;;;;13.87;8.70;;;22.40;65.50;;;;;;5075533;28;20052;-74
2023/05/22 11:14:50;;;;;;;12.65;7.65;;;22.40;65.60;;;;;;5074689;28;20052;-74
2023/05/22 11:17:28;;;;;;;12.82;9.13;;;22.40;65.60;;;;;;5075397;28;20128;-73
2023/05/22 11:20:19;;;;;;;14.60;8.27;;;22.50;65.70;;;;;;5075334;28;20491;-73
2023/05/22 11:22:59;;;;;;;13.88;8.15;;;22.50;66.40;;;;;;5073743;28;20094;-74
2023/05/22 11:25:25;;;;;;;13.65;8.32;;;22.50;65.80;;;;;;5073217;28;20052;-73
2023/05/22 11:27:52;;;;;;;13.30;7.93;;;22.50;65.80;;;;;;5056856;28;20404;-74
2023/05/22 11:30:17;;;;;;;13.07;7.53;;;22.50;65.80;;;;;;5072921;28;20060;-74
2023/05/22 11:32:44;;;;;;;12.68;7.55;;;22.60;65.80;;;;;;5073743;28;20396;-74
2023/05/22 11:35:19;;;;;;;12.55;8.05;;;22.50;65.80;;;;;;5072680;28;20128;-74
2023/05/22 11:37:45;;;;;;;12.00;7.78;;;22.60;65.80;;;;;;5073390;28;20040;-73
2023/05/22 11:40:15;;;;;;;12.32;7.43;;;22.60;65.80;;;;;;5073305;28;20055;-76
2023/05/22 11:42:41;;;;;;;11.35;7.45;;;22.60;65.80;;;;;;5074377;28;20041;-75
2023/05/22 11:45:07;;;;;;;11.23;7.25;;;22.60;65.70;;;;;;5074905;28;20036;-75
2023/05/22 11:47:32;;;;;;;11.98;8.10;;;22.60;65.70;;;;;;5074910;28;20037;-76
2023/05/22 11:50:01;;;;;;;12.05;7.85;;;22.60;65.70;;;;;;5072481;28;20120;-76
2023/05/22 11:52:33;;;;;;;10.73;7.07;;;22.60;65.60;;;;;;5074170;28;20123;-75
2023/05/22 11:54:58;;;;;;;12.20;7.38;;;22.60;65.60;;;;;;5070779;28;20041;-75
2023/05/22 11:57:24;;;;;;;10.20;7.68;;;22.70;65.60;;;;;;5073465;28;20033;-75
2023/05/22 11:59:50;;;;;;;12.23;7.25;;;22.70;65.60;;;;;;5074232;28;20544;-75
2023/05/22 12:02:16;;;;;;;12.45;7.53;;;22.70;65.60;;;;;;5073995;28;20044;-74
2023/05/22 12:04:42;;;;;;;15.18;7.72;;;22.70;65.60;;;;;;5073663;28;20033;-75
2023/05/22 12:07:07;;;;;;;10.40;7.60;;;22.80;65.60;;;;;;5074373;28;20067;-73
2023/05/22 12:09:33;;;;;;;12.55;8.02;;;22.80;65.60;;;;;;5073568;28;20047;-76
2023/05/22 12:11:59;;;;;;;11.13;7.60;;;22.70;65.50;;;;;;5072616;28;20044;-74
2023/05/22 12:14:26;;;;;;;10.35;7.50;;;22.80;65.40;;;;;;5072999;28;20036;-73
2023/05/22 12:16:52;;;;;;;10.13;7.63;;;22.80;65.40;;;;;;5056917;28;20056;-74
2023/05/22 12:19:17;;;;;;;9.80;6.95;;;22.80;65.30;;;;;;5073326;28;20098;-74
2023/05/22 12:21:43;;;;;;;11.38;7.47;;;22.80;65.30;;;;;;5074622;28;20052;-74
2023/05/22 12:24:09;;;;;;;11.95;7.75;;;22.80;65.30;;;;;;5073995;28;20467;-74
2023/05/22 12:26:35;;;;;;;11.63;7.57;;;22.80;65.30;;;;;;5073516;28;20101;-74
2023/05/22 12:29:01;;;;;;;11.50;7.43;;;22.80;65.30;;;;;;5074304;28;20086;-74
2023/05/22 12:31:27;;;;;;;10.85;6.88;;;22.80;65.20;;;;;;5073453;28;20128;-74
2023/05/22 12:33:55;;;;;;;9.52;7.03;;;22.80;65.20;;;;;;5074125;28;20128;-74
2023/05/22 12:36:34;;;;;;;10.75;7.30;;;22.80;65.20;;;;;;5074109;28;20082;-74
2023/05/22 12:38:59;;;;;;;11.68;7.47;;;22.80;65.10;;;;;;5073351;28;20089;-74
2023/05/22 12:41:25;;;;;;;9.15;7.00;;;22.80;65.20;;;;;;5074030;28;20040;-74
2023/05/22 12:43:50;;;;;;;14.63;7.65;;;22.80;65.10;;;;;;5072885;28;20049;-74